Time;durP1;ratioP1;P1;durP2;ratioP2;P2;SDS_P1;SDS_P2;PMS_P1;PMS_P2;Temp;Humidity;BMP_temperature;BMP_pressure;BME280_temperature;BME280_humidity;BME280_pressure;Samples;Min_cycle;Max_cycle;Signal;HPM_P1;HPM_P2
2023/05/07 00:00:31;;;;;;;16.08;10.80;;;11.50;99.90;;;;;;5048840;28;20033;-74
2023/05/07 00:02:58;;;;;;;18.27;12.48;;;11.50;99.90;;;;;;5049274;28;20041;-73
2023/05/07 00:05:26;;;;;;;20.05;13.15;;;11.50;99.90;;;;;;5051057;28;20489;-74
2023/05/07 00:07:53;;;;;;;22.75;13.02;;;11.40;99.90;;;;;;5049927;28;20049;-74
2023/05/07 00:10:21;;;;;;;18.50;11.95;;;11.30;99.90;;;;;;5049933;28;20063;-75
2023/05/07 00:12:50;;;;;;;17.25;11.93;;;11.30;99.90;;;;;;5049397;28;20045;-75
2023/05/07 00:15:17;;;;;;;15.93;11.77;;;11.30;99.90;;;;;;5050072;28;20417;-75
2023/05/07 00:17:44;;;;;;;16.35;11.05;;;11.30;99.90;;;;;;5049868;28;20118;-74
2023/05/07 00:20:13;;;;;;;16.88;11.95;;;11.30;99.90;;;;;;5049685;28;20033;-75
2023/05/07 00:22:40;;;;;;;17.10;12.07;;;11.30;99.90;;;;;;5049015;28;20033;-75
2023/05/07 00:25:08;;;;;;;16.85;11.07;;;11.30;99.90;;;;;;5049638;28;20063;-75
2023/05/07 00:27:35;;;;;;;13.90;10.25;;;11.20;99.90;;;;;;5049954;28;20136;-75
2023/05/07 00:30:06;;;;;;;18.83;13.48;;;11.10;99.90;;;;;;5048784;28;20041;-75
2023/05/07 00:32:33;;;;;;;18.70;12.15;;;11.10;99.90;;;;;;5064567;28;20500;-74
2023/05/07 00:35:01;;;;;;;18.67;11.10;;;11.10;99.90;;;;;;5049799;28;20041;-75
2023/05/07 00:37:28;;;;;;;34.22;24.52;;;11.00;99.90;;;;;;5049590;28;20049;-73
2023/05/07 00:39:56;;;;;;;12.73;9.85;;;11.00;99.90;;;;;;5049407;28;20048;-75
2023/05/07 00:42:23;;;;;;;13.63;9.70;;;11.00;99.90;;;;;;5046859;28;20116;-74
2023/05/07 00:44:51;;;;;;;13.63;9.55;;;11.00;99.90;;;;;;5047379;28;20584;-75
2023/05/07 00:47:20;;;;;;;13.32;8.63;;;10.90;99.90;;;;;;5048522;28;20036;-75
2023/05/07 00:49:47;;;;;;;12.07;9.40;;;10.90;99.90;;;;;;5047395;28;20136;-75
2023/05/07 00:52:17;;;;;;;12.93;9.52;;;10.80;99.90;;;;;;5048802;28;20114;-75
2023/05/07 00:54:45;;;;;;;19.30;10.20;;;10.80;99.90;;;;;;5048209;28;20040;-75
2023/05/07 00:57:13;;;;;;;12.30;9.73;;;10.70;99.90;;;;;;5048256;28;20044;-73
2023/05/07 00:59:42;;;;;;;15.10;9.82;;;10.60;99.90;;;;;;5048199;28;20041;-76
2023/05/07 01:02:10;;;;;;;13.38;11.25;;;10.60;99.90;;;;;;5049627;28;20033;-75
2023/05/07 01:04:38;;;;;;;15.25;10.23;;;10.50;99.90;;;;;;5048442;28;20049;-75
2023/05/07 01:07:06;;;;;;;12.77;9.75;;;10.60;99.90;;;;;;5047967;28;20037;-76
2023/05/07 01:09:35;;;;;;;14.77;9.85;;;10.50;99.90;;;;;;5048989;28;20554;-76
2023/05/07 01:12:04;;;;;;;13.23;10.02;;;10.50;99.90;;;;;;5065860;28;20040;-75
2023/05/07 01:14:32;;;;;;;14.90;10.30;;;10.40;99.90;;;;;;5049927;28;20036;-76
2023/05/07 01:17:00;;;;;;;16.63;10.05;;;10.30;99.90;;;;;;5048267;28;20045;-75
2023/05/07 01:19:30;;;;;;;13.20;9.68;;;10.20;99.90;;;;;;5046574;28;20069;-75
2023/05/07 01:22:04;;;;;;;11.77;8.43;;;10.20;99.90;;;;;;5046148;28;20049;-76
2023/05/07 01:24:38;;;;;;;13.52;9.07;;;10.20;99.90;;;;;;5047263;28;20041;-75
2023/05/07 01:27:08;;;;;;;14.75;8.98;;;10.20;99.90;;;;;;5062813;28;20131;-74
2023/05/07 01:29:36;;;;;;;11.45;8.20;;;10.20;99.90;;;;;;5064220;28;20045;-75
2023/05/07 01:32:04;;;;;;;14.90;8.70;;;10.10;99.90;;;;;;5044230;28;20041;-75
2023/05/07 01:34:35;;;;;;;10.10;8.20;;;10.10;99.90;;;;;;5046109;28;20041;-75
2023/05/07 01:37:03;;;;;;;13.02;8.13;;;10.10;99.90;;;;;;5063185;28;20110;-74
2023/05/07 01:39:32;;;;;;;14.57;8.45;;;10.20;99.90;;;;;;5047681;28;20110;-75
2023/05/07 01:42:01;;;;;;;13.25;8.43;;;10.20;99.90;;;;;;5046714;28;20517;-75
2023/05/07 01:44:29;;;;;;;13.60;8.95;;;10.20;99.90;;;;;;5046198;28;20045;-76
2023/05/07 01:46:58;;;;;;;11.60;8.00;;;10.20;99.90;;;;;;5046898;28;20103;-75
2023/05/07 01:49:25;;;;;;;11.05;8.23;;;10.10;99.90;;;;;;5046630;28;20037;-75
2023/05/07 01:51:53;;;;;;;12.27;9.23;;;10.20;99.90;;;;;;5046498;28;20095;-74
2023/05/07 01:54:21;;;;;;;11.50;8.18;;;10.10;99.90;;;;;;5047126;28;20072;-75
2023/05/07 01:56:49;;;;;;;17.55;8.88;;;10.10;99.90;;;;;;5047234;28;20389;-75
2023/05/07 01:59:18;;;;;;;13.80;9.63;;;10.10;99.90;;;;;;5047074;28;20049;-74
2023/05/07 02:01:45;;;;;;;12.13;9.10;;;10.10;99.90;;;;;;5046248;28;20061;-75
2023/05/07 02:04:13;;;;;;;11.55;8.50;;;10.00;99.90;;;;;;5046174;28;20049;-75
2023/05/07 02:06:41;;;;;;;12.90;9.00;;;10.00;99.90;;;;;;5045215;28;20037;-75
2023/05/07 02:09:10;;;;;;;11.70;8.98;;;10.00;99.90;;;;;;5046106;28;20050;-75
2023/05/07 02:11:40;;;;;;;13.88;8.55;;;9.90;99.90;;;;;;5061665;28;20567;-75
2023/05/07 02:14:08;;;;;;;11.75;8.52;;;9.80;99.90;;;;;;5046510;28;20111;-74
2023/05/07 02:16:37;;;;;;;12.48;7.53;;;9.80;99.90;;;;;;5046370;28;20487;-75
2023/05/07 02:19:05;;;;;;;12.90;8.35;;;9.80;99.90;;;;;;5046192;28;20059;-75
2023/05/07 02:21:32;;;;;;;12.25;8.77;;;9.80;99.90;;;;;;5045998;28;20040;-75
2023/05/07 02:24:00;;;;;;;13.27;9.23;;;9.80;99.90;;;;;;5046291;28;20146;-75
2023/05/07 02:26:27;;;;;;;12.30;8.80;;;9.90;99.90;;;;;;5063351;28;20064;-76
2023/05/07 02:28:55;;;;;;;15.38;9.30;;;9.80;99.90;;;;;;5046528;28;20057;-76
2023/05/07 02:31:22;;;;;;;10.77;8.48;;;9.80;99.90;;;;;;5062197;28;20460;-76
2023/05/07 02:33:51;;;;;;;12.23;8.60;;;9.80;99.90;;;;;;5045943;28;20085;-75
2023/05/07 02:36:19;;;;;;;10.88;8.77;;;9.80;99.90;;;;;;5046175;28;20041;-74
2023/05/07 02:38:58;;;;;;;13.63;9.00;;;9.80;99.90;;;;;;5046390;28;20077;-75
2023/05/07 02:41:27;;;;;;;11.48;8.63;;;9.70;99.90;;;;;;5047292;28;20045;-76
2023/05/07 02:43:55;;;;;;;14.52;10.25;;;9.70;99.90;;;;;;5047163;28;20049;-76
2023/05/07 02:46:23;;;;;;;14.60;9.35;;;9.70;99.90;;;;;;5046881;28;20048;-75
2023/05/07 02:49:00;;;;;;;11.80;8.18;;;9.70;99.90;;;;;;5062846;28;20041;-74
2023/05/07 02:51:28;;;;;;;11.65;8.65;;;9.60;99.90;;;;;;5062565;28;20044;-77
2023/05/07 02:53:58;;;;;;;12.48;8.15;;;9.60;99.90;;;;;;5045410;28;20397;-75
2023/05/07 02:56:27;;;;;;;11.80;8.32;;;9.50;99.90;;;;;;5046379;28;20140;-75
2023/05/07 02:58:55;;;;;;;11.75;9.00;;;9.40;99.90;;;;;;5046248;28;20045;-76
2023/05/07 03:01:25;;;;;;;13.30;9.23;;;9.40;99.90;;;;;;5064805;28;20037;-75
2023/05/07 03:04:03;;;;;;;12.50;9.55;;;9.40;99.90;;;;;;5049494;28;20048;-75
2023/05/07 03:06:31;;;;;;;16.48;8.98;;;9.40;99.90;;;;;;5049556;28;20045;-76
2023/05/07 03:08:58;;;;;;;15.40;9.68;;;9.40;99.90;;;;;;5066539;28;20052;-75
2023/05/07 03:11:26;;;;;;;11.57;9.20;;;9.40;99.90;;;;;;5065456;28;20041;-75
2023/05/07 03:13:53;;;;;;;11.82;8.27;;;9.40;99.90;;;;;;5050237;28;20056;-76
2023/05/07 03:16:22;;;;;;;9.98;7.57;;;9.40;99.90;;;;;;5049659;28;20048;-75
2023/05/07 03:18:49;;;;;;;11.93;9.13;;;9.30;99.90;;;;;;5049988;28;20033;-75
2023/05/07 03:21:18;;;;;;;9.98;8.43;;;9.20;99.90;;;;;;5047439;28;20059;-75
2023/05/07 03:23:46;;;;;;;9.77;8.13;;;9.20;99.90;;;;;;5048694;28;20327;-76
2023/05/07 03:26:14;;;;;;;9.38;7.15;;;9.10;99.90;;;;;;5066185;28;20119;-75
2023/05/07 03:28:42;;;;;;;9.98;7.50;;;9.10;99.90;;;;;;5049049;28;20072;-75
2023/05/07 03:31:13;;;;;;;10.65;7.70;;;9.10;99.90;;;;;;5066012;28;20045;-75
2023/05/07 03:33:53;;;;;;;10.77;7.70;;;9.10;99.90;;;;;;5050778;28;20501;-74
2023/05/07 03:36:23;;;;;;;10.48;7.72;;;9.10;99.90;;;;;;5050205;28;20048;-76
2023/05/07 03:38:51;;;;;;;9.90;7.60;;;9.10;99.90;;;;;;5049193;28;20040;-76
2023/05/07 03:41:21;;;;;;;9.85;7.40;;;9.20;99.90;;;;;;5049008;28;20049;-76
2023/05/07 03:43:49;;;;;;;12.45;9.18;;;9.20;99.90;;;;;;5049148;28;20045;-75
2023/05/07 03:46:17;;;;;;;13.38;8.00;;;9.30;99.90;;;;;;5049357;28;20047;-76
2023/05/07 03:48:45;;;;;;;11.48;8.52;;;9.30;99.90;;;;;;5049063;28;20048;-75
2023/05/07 03:51:15;;;;;;;12.77;8.23;;;9.30;99.90;;;;;;5064547;28;20682;-75
2023/05/07 03:53:44;;;;;;;12.77;8.60;;;9.40;99.90;;;;;;5048598;28;20975;-75
2023/05/07 03:56:11;;;;;;;11.15;9.00;;;9.40;99.90;;;;;;5048939;28;20040;-75
2023/05/07 03:58:41;;;;;;;16.30;10.45;;;9.60;99.90;;;;;;5064809;28;20379;-76
2023/05/07 04:01:11;;;;;;;14.85;8.13;;;9.70;99.90;;;;;;5048007;28;20270;-73
2023/05/07 04:03:38;;;;;;;13.77;8.38;;;10.00;99.90;;;;;;5066448;28;20045;-75
2023/05/07 04:06:06;;;;;;;12.35;7.88;;;10.70;99.90;;;;;;5055387;28;20048;-75
2023/05/07 04:08:35;;;;;;;11.10;7.20;;;11.40;99.90;;;;;;5059165;28;20047;-75
2023/05/07 04:11:06;;;;;;;10.40;7.50;;;12.20;99.90;;;;;;5048871;28;20048;-74
2023/05/07 04:13:34;;;;;;;10.05;6.82;;;13.00;99.90;;;;;;5049492;28;20045;-76
2023/05/07 04:16:05;;;;;;;9.32;7.32;;;13.40;99.90;;;;;;5048779;28;20175;-75
2023/05/07 04:18:35;;;;;;;11.90;7.90;;;13.80;99.90;;;;;;5066473;28;20440;-77
2023/05/07 04:21:02;;;;;;;9.30;6.80;;;14.30;99.90;;;;;;5049682;28;20555;-76
2023/05/07 04:23:30;;;;;;;9.65;6.38;;;14.70;99.90;;;;;;5064257;28;20524;-76
2023/05/07 04:26:00;;;;;;;8.40;5.68;;;15.10;99.90;;;;;;5064189;28;20037;-77
2023/05/07 04:28:40;;;;;;;8.82;6.20;;;15.30;99.90;;;;;;5047908;28;20068;-75
2023/05/07 04:31:08;;;;;;;11.30;6.78;;;15.50;99.90;;;;;;5048182;28;20045;-75
2023/05/07 04:33:38;;;;;;;10.93;6.40;;;15.20;99.90;;;;;;5047443;28;20037;-75
2023/05/07 04:36:08;;;;;;;10.15;6.15;;;15.20;99.90;;;;;;5047908;28;20044;-75
2023/05/07 04:38:43;;;;;;;16.08;7.15;;;15.10;99.90;;;;;;5047475;28;20059;-75
2023/05/07 04:41:11;;;;;;;21.67;8.13;;;14.80;99.90;;;;;;5047915;28;20501;-74
2023/05/07 04:43:42;;;;;;;11.68;8.07;;;14.60;99.90;;;;;;5046763;28;20037;-76
2023/05/07 04:46:12;;;;;;;11.85;8.85;;;14.30;99.90;;;;;;5064059;28;20572;-75
2023/05/07 04:48:41;;;;;;;14.07;9.55;;;14.00;99.90;;;;;;5047603;28;20071;-75
2023/05/07 04:51:08;;;;;;;15.25;9.50;;;14.00;99.90;;;;;;5047611;28;20548;-76
2023/05/07 04:53:36;;;;;;;15.80;9.20;;;13.60;99.90;;;;;;5048100;28;20098;-75
2023/05/07 04:56:04;;;;;;;11.02;8.05;;;13.60;99.90;;;;;;5064026;28;20887;-75
2023/05/07 04:58:38;;;;;;;12.43;8.23;;;13.70;99.90;;;;;;5047703;28;20044;-75
2023/05/07 05:01:07;;;;;;;13.75;8.35;;;13.70;99.90;;;;;;5048681;28;20133;-75
2023/05/07 05:03:35;;;;;;;12.50;8.40;;;13.80;99.90;;;;;;5046589;28;20454;-77
2023/05/07 05:06:03;;;;;;;18.00;8.73;;;14.00;99.90;;;;;;5046702;28;20061;-76
2023/05/07 05:08:33;;;;;;;11.30;7.38;;;14.30;99.90;;;;;;5047356;28;20048;-76
2023/05/07 05:11:03;;;;;;;11.43;7.75;;;14.60;99.90;;;;;;5046571;28;20043;-76
2023/05/07 05:13:32;;;;;;;9.35;8.23;;;14.70;99.90;;;;;;5064023;28;20037;-76
2023/05/07 05:16:02;;;;;;;12.90;7.07;;;14.90;99.90;;;;;;5046878;28;20477;-75
2023/05/07 05:18:34;;;;;;;9.60;6.90;;;15.80;99.90;;;;;;5047338;28;20397;-75
2023/05/07 05:21:01;;;;;;;9.82;6.93;;;17.00;99.90;;;;;;5046706;28;20408;-76
2023/05/07 05:23:30;;;;;;;10.45;7.10;;;18.20;99.90;;;;;;5048330;28;20045;-75
2023/05/07 05:25:59;;;;;;;10.57;6.45;;;19.00;99.80;;;;;;5048098;28;20566;-75
2023/05/07 05:28:28;;;;;;;11.73;6.63;;;19.30;93.40;;;;;;5046871;28;20439;-75
2023/05/07 05:30:56;;;;;;;8.00;5.50;;;19.70;92.20;;;;;;5061982;28;20094;-76
2023/05/07 05:33:25;;;;;;;8.13;6.10;;;20.10;90.00;;;;;;5063737;28;20128;-75
2023/05/07 05:35:55;;;;;;;9.13;5.75;;;20.20;86.90;;;;;;5046976;28;20485;-75
2023/05/07 05:38:22;;;;;;;10.63;6.43;;;19.60;88.20;;;;;;5047513;28;20041;-75
2023/05/07 05:40:50;;;;;;;8.93;5.28;;;19.60;88.20;;;;;;5047574;28;20734;-75
2023/05/07 05:43:19;;;;;;;9.15;5.65;;;19.40;87.60;;;;;;5050240;28;20582;-74
2023/05/07 05:45:47;;;;;;;9.88;6.30;;;19.30;89.40;;;;;;5047182;28;20053;-76
2023/05/07 05:48:14;;;;;;;11.52;8.00;;;19.40;89.10;;;;;;5047402;28;20052;-75
2023/05/07 05:50:43;;;;;;;10.27;6.55;;;19.30;90.40;;;;;;5046259;28;20041;-77
2023/05/07 05:53:13;;;;;;;12.70;8.18;;;19.20;90.30;;;;;;5047881;28;20090;-76
2023/05/07 05:55:41;;;;;;;12.70;5.70;;;19.30;91.20;;;;;;5046099;28;20077;-75
2023/05/07 05:58:10;;;;;;;9.95;5.72;;;19.40;91.30;;;;;;5046174;28;20049;-75
2023/05/07 06:00:41;;;;;;;9.45;5.78;;;19.60;90.30;;;;;;5045205;28;20041;-76
2023/05/07 06:03:10;;;;;;;6.82;5.53;;;19.60;90.40;;;;;;5045258;28;20053;-76
2023/05/07 06:05:37;;;;;;;11.30;6.85;;;19.70;89.80;;;;;;5045513;28;20036;-75
2023/05/07 06:08:06;;;;;;;10.88;6.43;;;19.60;89.70;;;;;;5045824;28;20052;-76
2023/05/07 06:10:37;;;;;;;11.77;5.97;;;19.70;90.10;;;;;;5045511;28;20045;-76
2023/05/07 06:13:07;;;;;;;24.48;8.35;;;19.60;90.70;;;;;;5061864;28;20131;-75
2023/05/07 06:15:35;;;;;;;12.10;8.40;;;19.60;91.20;;;;;;5045780;28;20053;-75
2023/05/07 06:18:08;;;;;;;9.13;5.78;;;19.60;90.80;;;;;;5062914;28;20065;-77
2023/05/07 06:20:35;;;;;;;6.75;5.28;;;19.80;90.10;;;;;;5064058;28;20041;-75
2023/05/07 06:23:06;;;;;;;7.18;5.88;;;19.90;88.30;;;;;;5046145;28;20049;-76
2023/05/07 06:25:36;;;;;;;9.88;7.65;;;20.00;88.20;;;;;;5045903;28;20064;-77
2023/05/07 06:28:04;;;;;;;10.23;5.78;;;20.20;87.10;;;;;;5047460;28;20053;-76
2023/05/07 06:30:34;;;;;;;8.35;6.05;;;20.30;86.60;;;;;;5044380;28;20584;-75
2023/05/07 06:33:01;;;;;;;7.70;5.90;;;20.50;85.40;;;;;;5062794;28;20068;-77
2023/05/07 06:35:29;;;;;;;8.98;6.00;;;20.70;82.80;;;;;;5047304;28;20041;-75
2023/05/07 06:37:57;;;;;;;7.38;5.47;;;20.70;81.00;;;;;;5067325;28;20045;-75
2023/05/07 06:40:27;;;;;;;8.77;5.55;;;20.70;80.10;;;;;;5049247;28;20140;-76
2023/05/07 06:42:56;;;;;;;7.65;6.18;;;20.40;80.00;;;;;;5051692;28;20095;-74
2023/05/07 06:45:31;;;;;;;10.52;6.22;;;20.40;80.80;;;;;;5049237;28;20404;-75
2023/05/07 06:47:59;;;;;;;9.73;6.22;;;20.50;80.00;;;;;;5049823;28;20045;-76
2023/05/07 06:50:28;;;;;;;10.23;6.15;;;20.60;79.30;;;;;;5049772;28;20205;-75
2023/05/07 06:52:58;;;;;;;8.50;6.78;;;20.70;79.00;;;;;;5049921;28;20045;-76
2023/05/07 06:55:26;;;;;;;12.88;7.20;;;20.80;78.10;;;;;;5066401;28;20049;-74
2023/05/07 06:57:57;;;;;;;9.30;7.18;;;21.10;78.20;;;;;;5050448;28;20454;-74
2023/05/07 07:00:26;;;;;;;11.40;8.02;;;21.40;76.80;;;;;;5048620;28;20044;-76
2023/05/07 07:02:56;;;;;;;11.07;7.75;;;21.40;75.90;;;;;;5049301;28;20106;-74
2023/05/07 07:05:27;;;;;;;9.60;7.10;;;21.30;76.20;;;;;;5066737;28;20087;-76
2023/05/07 07:07:56;;;;;;;12.75;7.35;;;21.30;75.90;;;;;;5049201;28;20063;-76
2023/05/07 07:10:24;;;;;;;10.18;7.93;;;21.30;76.70;;;;;;5049190;28;20037;-75
2023/05/07 07:12:53;;;;;;;13.10;7.57;;;21.40;76.60;;;;;;5049894;28;20041;-75
2023/05/07 07:15:32;;;;;;;15.02;7.57;;;21.70;76.20;;;;;;5048924;28;20029;-77
2023/05/07 07:18:00;;;;;;;10.18;7.82;;;21.50;76.20;;;;;;5066087;28;20064;-76
2023/05/07 07:20:27;;;;;;;11.27;7.60;;;21.20;76.90;;;;;;5049938;28;20115;-74
2023/05/07 07:22:56;;;;;;;11.60;7.30;;;21.20;77.30;;;;;;5065291;28;20512;-77
2023/05/07 07:25:23;;;;;;;12.35;7.57;;;21.40;77.50;;;;;;5049854;28;20394;-75
2023/05/07 07:27:52;;;;;;;14.18;7.65;;;21.90;77.40;;;;;;5065673;28;20055;-74
2023/05/07 07:30:22;;;;;;;14.48;7.88;;;22.20;76.50;;;;;;5064777;28;20041;-74
2023/05/07 07:32:52;;;;;;;15.00;9.90;;;22.50;74.80;;;;;;5049082;28;20072;-77
2023/05/07 07:35:21;;;;;;;16.15;10.45;;;22.50;74.20;;;;;;5066281;28;20049;-75
2023/05/07 07:37:50;;;;;;;14.75;8.45;;;22.50;74.40;;;;;;5048390;28;20051;-74
2023/05/07 07:40:18;;;;;;;9.77;7.47;;;22.60;73.60;;;;;;5064769;28;20049;-74
2023/05/07 07:42:46;;;;;;;14.02;7.82;;;22.50;73.40;;;;;;5048166;28;20397;-74
2023/05/07 07:45:14;;;;;;;16.20;7.80;;;22.40;71.80;;;;;;5065686;28;20132;-76
2023/05/07 07:47:46;;;;;;;18.92;8.50;;;22.50;71.60;;;;;;5065081;28;20048;-77
2023/05/07 07:50:15;;;;;;;17.63;8.10;;;22.50;71.70;;;;;;5049635;28;20251;-76
2023/05/07 07:52:43;;;;;;;13.85;7.97;;;22.70;70.60;;;;;;5064928;28;20504;-74
2023/05/07 07:55:12;;;;;;;13.25;7.53;;;22.70;69.20;;;;;;5048785;28;20052;-75
2023/05/07 07:57:40;;;;;;;11.07;8.15;;;22.80;67.60;;;;;;5048983;28;20548;-75
2023/05/07 08:00:09;;;;;;;10.90;6.60;;;22.90;67.00;;;;;;5064467;28;20122;-74
2023/05/07 08:02:44;;;;;;;9.75;6.03;;;23.10;65.80;;;;;;5050277;28;20134;-75
2023/05/07 08:05:17;;;;;;;11.57;6.63;;;23.30;65.90;;;;;;5049234;28;20040;-76
2023/05/07 08:07:46;;;;;;;12.60;8.57;;;23.40;64.60;;;;;;5065233;28;20095;-76
2023/05/07 08:10:20;;;;;;;11.00;6.93;;;23.50;64.50;;;;;;5048140;28;20497;-74
2023/05/07 08:12:49;;;;;;;10.38;7.47;;;23.50;64.60;;;;;;5064717;28;20037;-77
2023/05/07 08:15:17;;;;;;;13.15;7.53;;;23.50;62.40;;;;;;5064969;28;20045;-87
2023/05/07 08:17:46;;;;;;;11.32;7.22;;;23.60;61.40;;;;;;5049454;28;20044;-77
2023/05/07 08:20:14;;;;;;;24.38;17.63;;;23.60;61.20;;;;;;5048669;28;20057;-76
2023/05/07 08:22:43;;;;;;;13.27;7.28;;;23.70;61.80;;;;;;5048009;28;20505;-77
2023/05/07 08:25:10;;;;;;;422.35;337.55;;;23.80;62.20;;;;;;5047785;28;20041;-78
2023/05/07 08:27:39;;;;;;;426.17;350.83;;;23.80;62.10;;;;;;5048056;28;20040;-76
2023/05/07 08:30:08;;;;;;;67.80;54.08;;;23.80;61.70;;;;;;5050110;28;20044;-81
2023/05/07 08:32:36;;;;;;;11.82;7.75;;;24.00;61.30;;;;;;5052514;28;20091;-77
2023/05/07 08:35:04;;;;;;;11.32;8.00;;;24.00;61.00;;;;;;5049878;28;20045;-77
2023/05/07 08:37:31;;;;;;;18.38;10.90;;;24.10;60.70;;;;;;5049566;28;20041;-77
2023/05/07 08:40:01;;;;;;;11.63;8.13;;;24.30;60.20;;;;;;5049002;28;20045;-76
2023/05/07 08:42:37;;;;;;;10.02;5.78;;;24.30;59.60;;;;;;5063902;28;20049;-74
2023/05/07 08:45:09;;;;;;;12.43;9.48;;;24.40;59.00;;;;;;5064813;28;20037;-76
2023/05/07 08:47:45;;;;;;;15.25;9.77;;;24.60;59.20;;;;;;5047669;28;20128;-76
2023/05/07 08:50:13;;;;;;;7.03;4.93;;;24.60;57.80;;;;;;5049330;28;20053;-74
2023/05/07 08:52:41;;;;;;;8.52;4.45;;;24.40;55.90;;;;;;5047112;28;20135;-79
2023/05/07 08:55:11;;;;;;;8.93;5.22;;;24.50;55.80;;;;;;5065504;28;20091;-80
2023/05/07 08:57:39;;;;;;;8.13;4.80;;;24.60;55.50;;;;;;5047511;28;20045;-76
2023/05/07 09:00:07;;;;;;;9.52;4.97;;;24.70;54.30;;;;;;5048164;28;20060;-76
2023/05/07 09:02:37;;;;;;;8.70;5.50;;;24.80;53.70;;;;;;5047308;28;20045;-75
2023/05/07 09:05:07;;;;;;;10.50;7.18;;;24.80;54.20;;;;;;5047923;28;20052;-77
2023/05/07 09:07:35;;;;;;;8.20;5.15;;;24.90;54.00;;;;;;5047272;28;20049;-80
2023/05/07 09:10:06;;;;;;;10.07;4.95;;;24.90;54.20;;;;;;5062871;28;20098;-76
2023/05/07 09:12:37;;;;;;;9.45;6.50;;;24.70;52.60;;;;;;5046766;28;20041;-76
2023/05/07 09:15:09;;;;;;;9.07;4.47;;;24.90;53.30;;;;;;5046644;28;20099;-75
2023/05/07 09:17:36;;;;;;;5.53;3.65;;;25.00;50.80;;;;;;5047469;28;20126;-76
2023/05/07 09:20:05;;;;;;;7.18;4.10;;;25.00;46.80;;;;;;5047055;28;20519;-75
2023/05/07 09:22:33;;;;;;;5.40;3.47;;;24.90;46.50;;;;;;5045962;28;20041;-75
2023/05/07 09:25:07;;;;;;;6.57;3.25;;;24.90;45.30;;;;;;5044892;28;20052;-77
2023/05/07 09:27:36;;;;;;;7.53;3.70;;;24.90;45.50;;;;;;5046187;28;20052;-75
2023/05/07 09:30:08;;;;;;;7.07;3.60;;;25.00;46.30;;;;;;5062091;28;20152;-74
2023/05/07 09:32:37;;;;;;;7.68;4.55;;;25.10;47.80;;;;;;5046619;28;20157;-74
2023/05/07 09:35:07;;;;;;;9.98;4.88;;;25.10;48.60;;;;;;5046733;28;20056;-75
2023/05/07 09:37:36;;;;;;;7.13;4.38;;;25.10;49.50;;;;;;5063830;28;20133;-75
2023/05/07 09:40:06;;;;;;;7.47;4.82;;;25.10;50.20;;;;;;5046219;28;20041;-77
2023/05/07 09:42:34;;;;;;;7.45;4.88;;;25.10;50.00;;;;;;5047601;28;20086;-74
2023/05/07 09:45:07;;;;;;;5.72;3.97;;;25.20;49.80;;;;;;5062200;28;20623;-74
2023/05/07 09:47:39;;;;;;;7.30;5.15;;;25.10;49.60;;;;;;5047430;28;20519;-75
2023/05/07 09:50:11;;;;;;;7.40;4.22;;;25.20;49.50;;;;;;5048523;28;20060;-76
2023/05/07 09:52:41;;;;;;;7.97;4.40;;;25.40;49.10;;;;;;5046026;28;20041;-77
2023/05/07 09:55:10;;;;;;;8.93;6.68;;;25.40;48.70;;;;;;5046730;28;20037;-76
2023/05/07 09:57:39;;;;;;;5.88;4.50;;;25.40;46.50;;;;;;5046942;28;20041;-75
2023/05/07 10:00:12;;;;;;;8.15;4.90;;;25.40;47.20;;;;;;5046636;28;20033;-75
2023/05/07 10:02:51;;;;;;;7.88;5.55;;;25.40;47.10;;;;;;5047257;28;20053;-78
2023/05/07 10:05:23;;;;;;;6.07;4.47;;;25.60;47.60;;;;;;5047384;28;20412;-77
2023/05/07 10:07:54;;;;;;;8.07;5.35;;;25.50;48.50;;;;;;5046070;28;20052;-77
2023/05/07 10:10:24;;;;;;;6.32;4.18;;;25.60;49.00;;;;;;5044878;28;20485;-76
2023/05/07 10:12:52;;;;;;;5.78;4.57;;;25.50;48.30;;;;;;5045909;28;20037;-75
2023/05/07 10:15:30;;;;;;;6.32;4.22;;;25.20;47.40;;;;;;5046173;28;20049;-75
2023/05/07 10:17:59;;;;;;;6.70;4.22;;;25.20;47.50;;;;;;5046536;28;20117;-77
2023/05/07 10:20:28;;;;;;;9.68;6.95;;;25.10;47.80;;;;;;5047003;28;20041;-76
2023/05/07 10:22:58;;;;;;;8.75;5.53;;;25.30;48.00;;;;;;5046335;28;20033;-76
2023/05/07 10:25:33;;;;;;;7.55;6.60;;;25.60;47.30;;;;;;5062679;28;20095;-75
2023/05/07 10:28:09;;;;;;;5.90;4.95;;;25.80;47.30;;;;;;5045367;28;20484;-76
2023/05/07 10:30:55;;;;;;;7.43;4.65;;;25.80;47.30;;;;;;5045641;28;20236;-76
2023/05/07 10:33:26;;;;;;;;;;;25.90;47.20;;;;;;5046197;28;20041;-76
2023/05/07 10:35:58;;;;;;;7.63;5.00;;;25.80;46.40;;;;;;5045775;28;20023;-75
2023/05/07 10:38:28;;;;;;;7.18;5.10;;;25.80;46.90;;;;;;5047204;28;20045;-77
2023/05/07 10:40:56;;;;;;;5.93;4.57;;;25.80;46.30;;;;;;5044821;28;20651;-76
2023/05/07 10:43:23;;;;;;;8.90;5.57;;;25.90;46.40;;;;;;5065258;28;20041;-76
2023/05/07 10:46:17;;;;;;;7.65;5.10;;;26.00;46.20;;;;;;5063238;28;20041;-77
2023/05/07 10:49:12;;;;;;;20.30;14.02;;;26.00;46.10;;;;;;5061894;28;20045;-78
2023/05/07 10:52:15;;;;;;;6.97;4.45;;;26.20;45.00;;;;;;5044956;28;20037;-76
2023/05/07 10:55:09;;;;;;;5.25;4.00;;;26.20;42.80;;;;;;5045199;28;20037;-76
2023/05/07 10:57:37;;;;;;;6.15;4.85;;;26.20;42.00;;;;;;5047128;28;20152;-76
2023/05/07 11:00:46;;;;;;;5.32;4.13;;;26.40;42.80;;;;;;5045550;28;20068;-77
2023/05/07 11:03:24;;;;;;;6.40;4.43;;;26.70;42.90;;;;;;5063688;28;20144;-75
2023/05/07 11:06:13;;;;;;;10.32;4.53;;;26.90;42.10;;;;;;5061263;28;20299;-76
2023/05/07 11:08:55;;;;;;;6.20;4.97;;;26.80;41.50;;;;;;5029828;28;20037;-76
2023/05/07 11:11:52;;;;;;;5.63;4.18;;;27.00;41.60;;;;;;5045756;28;20533;-74
2023/05/07 11:14:46;;;;;;;6.85;4.60;;;26.90;40.60;;;;;;5033661;28;20508;-76
2023/05/07 11:17:21;;;;;;;4.97;4.32;;;27.00;40.40;;;;;;5045350;28;20075;-77
2023/05/07 11:19:57;;;;;;;9.23;5.00;;;27.00;41.30;;;;;;5062606;28;20138;-77
2023/05/07 11:22:43;;;;;;;8.10;4.88;;;27.20;40.80;;;;;;5064832;28;20045;-78
2023/05/07 11:25:26;;;;;;;12.63;4.50;;;27.20;40.50;;;;;;5065278;28;20048;-77
2023/05/07 11:28:06;;;;;;;5.63;4.10;;;27.20;38.80;;;;;;5048634;28;20053;-77
2023/05/07 11:30:35;;;;;;;7.18;5.97;;;27.50;41.30;;;;;;5052496;28;20033;-77
2023/05/07 11:33:05;;;;;;;7.55;4.32;;;27.70;41.30;;;;;;5049889;28;20041;-77
2023/05/07 11:35:35;;;;;;;8.65;4.50;;;27.70;40.40;;;;;;5050919;28;20045;-77
2023/05/07 11:38:03;;;;;;;5.47;4.57;;;27.70;40.00;;;;;;5067657;28;20048;-77
2023/05/07 11:40:34;;;;;;;5.93;4.38;;;27.70;39.80;;;;;;5064403;28;20044;-75
2023/05/07 11:43:11;;;;;;;6.13;3.92;;;27.70;40.20;;;;;;5048788;28;20130;-76
2023/05/07 11:45:39;;;;;;;7.22;4.03;;;27.50;40.30;;;;;;5050074;28;20060;-75
2023/05/07 11:48:07;;;;;;;7.15;5.80;;;27.40;39.70;;;;;;5050455;28;20037;-75
2023/05/07 11:50:36;;;;;;;9.40;7.63;;;27.30;40.40;;;;;;5049814;28;20036;-76
2023/05/07 11:53:09;;;;;;;5.80;4.63;;;27.20;40.10;;;;;;5049656;28;20044;-75
2023/05/07 11:55:36;;;;;;;6.50;5.50;;;27.10;39.60;;;;;;5049033;28;20063;-75
2023/05/07 11:58:04;;;;;;;6.00;3.97;;;27.10;40.20;;;;;;5049685;28;20049;-74
2023/05/07 12:00:32;;;;;;;8.32;4.25;;;27.10;40.50;;;;;;5049722;28;20047;-74
2023/05/07 12:03:04;;;;;;;4.70;3.47;;;27.10;40.60;;;;;;5050112;28;20091;-75
2023/05/07 12:05:32;;;;;;;6.55;5.18;;;26.90;40.50;;;;;;5049809;28;20041;-74
2023/05/07 12:08:01;;;;;;;4.88;4.03;;;26.80;40.60;;;;;;5049726;28;20049;-75
2023/05/07 12:10:29;;;;;;;8.18;4.07;;;26.70;40.40;;;;;;5049269;28;20064;-76
2023/05/07 12:12:56;;;;;;;5.40;4.18;;;26.70;40.10;;;;;;5049953;28;20045;-75
2023/05/07 12:15:24;;;;;;;6.53;3.92;;;26.70;40.30;;;;;;5049351;28;20103;-76
2023/05/07 12:17:52;;;;;;;6.28;4.18;;;26.60;41.30;;;;;;5049862;28;20037;-77
2023/05/07 12:20:20;;;;;;;5.68;4.10;;;26.60;41.40;;;;;;5049441;28;20557;-75
2023/05/07 12:22:51;;;;;;;5.35;4.05;;;26.70;40.60;;;;;;5047336;28;20075;-75
2023/05/07 12:25:21;;;;;;;5.63;4.20;;;26.80;41.00;;;;;;5049597;28;20045;-76
2023/05/07 12:27:53;;;;;;;5.70;4.60;;;26.80;40.80;;;;;;5048917;28;20709;-76
2023/05/07 12:30:20;;;;;;;6.60;4.97;;;26.90;40.20;;;;;;5049762;28;20044;-76
2023/05/07 12:32:48;;;;;;;9.38;7.63;;;27.10;40.20;;;;;;5063491;28;20056;-75
2023/05/07 12:35:15;;;;;;;7.07;5.50;;;27.30;40.00;;;;;;5049942;28;20481;-76
2023/05/07 12:37:43;;;;;;;7.30;5.35;;;27.50;41.40;;;;;;5049287;28;20037;-74
2023/05/07 12:40:12;;;;;;;4.93;4.05;;;27.60;39.50;;;;;;5049437;28;20037;-75
2023/05/07 12:42:42;;;;;;;9.07;7.38;;;27.70;39.40;;;;;;5049144;28;20041;-76
2023/05/07 12:45:10;;;;;;;8.32;5.22;;;27.60;38.80;;;;;;5049685;28;20071;-77
2023/05/07 12:47:38;;;;;;;8.77;6.65;;;27.40;38.90;;;;;;5051548;28;20046;-76
2023/05/07 12:50:07;;;;;;;6.35;5.60;;;27.50;40.10;;;;;;5054580;28;20049;-76
2023/05/07 12:52:35;;;;;;;10.57;8.00;;;27.80;39.10;;;;;;5052180;28;20036;-76
2023/05/07 12:55:06;;;;;;;5.95;5.05;;;27.90;38.70;;;;;;5050715;28;20037;-76